Time;durP1;ratioP1;P1;durP2;ratioP2;P2;SDS_P1;SDS_P2;PMS_P1;PMS_P2;Temp;Humidity;BMP_temperature;BMP_pressure;BME280_temperature;BME280_humidity;BME280_pressure;Samples;Min_cycle;Max_cycle;Signal;HPM_P1;HPM_P2
2024/01/11 00:02:04;;;;;;;17.33;5.82;;;-5.40;99.90;;;;;;5008828;28;20194;-80
2024/01/11 00:04:30;;;;;;;7.78;3.05;;;-5.50;99.90;;;;;;5005784;28;20194;-80
2024/01/11 00:06:55;;;;;;;16.70;7.37;;;-5.50;99.90;;;;;;5015178;28;20690;-82
2024/01/11 00:09:21;;;;;;;12.97;4.83;;;-5.50;99.90;;;;;;5011269;28;20232;-76
2024/01/11 00:11:46;;;;;;;10.80;4.20;;;-5.60;99.90;;;;;;5013432;28;20190;-80
2024/01/11 00:14:12;;;;;;;16.80;7.93;;;-5.60;99.90;;;;;;5012542;28;20216;-81
2024/01/11 00:16:37;;;;;;;12.70;5.97;;;-5.60;99.90;;;;;;5013527;28;20197;-82
2024/01/11 00:19:03;;;;;;;13.53;3.77;;;-5.70;99.90;;;;;;5030271;28;20198;-78
2024/01/11 00:21:28;;;;;;;7.83;4.13;;;-5.70;99.90;;;;;;5027606;28;20186;-80
2024/01/11 00:23:54;;;;;;;19.27;5.47;;;-5.70;99.90;;;;;;5017154;28;20177;-82
2024/01/11 00:26:20;;;;;;;19.07;4.87;;;-5.70;99.90;;;;;;5012939;28;20310;-83
2024/01/11 00:28:45;;;;;;;5.37;3.63;;;-5.70;99.90;;;;;;5016218;28;20228;-81
2024/01/11 00:31:11;;;;;;;12.93;3.67;;;-5.70;99.90;;;;;;5009614;28;20217;-77
2024/01/11 00:33:37;;;;;;;9.77;3.70;;;-5.70;99.90;;;;;;5010044;28;20248;-81
2024/01/11 00:36:03;;;;;;;3.60;2.50;;;-5.70;99.90;;;;;;5003568;28;20190;-79
2024/01/11 00:38:29;;;;;;;12.45;5.57;;;-5.80;99.90;;;;;;5006932;28;20817;-81
2024/01/11 00:40:54;;;;;;;13.00;6.97;;;-5.80;99.90;;;;;;5005759;28;20293;-78
2024/01/11 00:43:20;;;;;;;14.60;7.10;;;-5.70;99.90;;;;;;5009588;28;20285;-83
2024/01/11 00:45:45;;;;;;;22.83;5.80;;;-5.80;99.90;;;;;;5010477;28;20189;-83
2024/01/11 00:48:12;;;;;;;12.73;5.70;;;-5.70;99.90;;;;;;5014644;28;20205;-82
2024/01/11 00:50:37;;;;;;;16.40;5.10;;;-5.70;99.90;;;;;;5015401;28;20206;-78
2024/01/11 00:53:03;;;;;;;17.50;5.30;;;-5.70;99.90;;;;;;5024851;28;20273;-83
2024/01/11 00:55:29;;;;;;;12.47;2.87;;;-5.70;99.90;;;;;;5020575;28;20194;-82
2024/01/11 00:57:55;;;;;;;14.45;5.82;;;-5.70;99.90;;;;;;5015060;28;20444;-81
2024/01/11 01:00:20;;;;;;;10.17;5.03;;;-5.80;99.90;;;;;;5012315;28;20660;-83
2024/01/11 01:02:46;;;;;;;14.13;8.50;;;-5.80;99.90;;;;;;5010815;28;20914;-81
2024/01/11 01:05:11;;;;;;;10.63;4.20;;;-5.80;99.90;;;;;;5015580;28;20222;-82
2024/01/11 01:07:37;;;;;;;16.70;4.67;;;-5.80;99.90;;;;;;5013399;28;20268;-79
2024/01/11 01:10:03;;;;;;;25.57;4.77;;;-5.80;99.90;;;;;;5014501;28;20348;-80
2024/01/11 01:12:28;;;;;;;19.30;5.23;;;-5.80;99.90;;;;;;5018084;28;20186;-84
2024/01/11 01:14:55;;;;;;;5.03;4.67;;;-5.80;99.90;;;;;;5015343;28;20218;-85
2024/01/11 01:17:21;;;;;;;6.00;4.15;;;-5.80;99.90;;;;;;5009961;28;20194;-80
2024/01/11 01:19:47;;;;;;;11.13;4.43;;;-5.90;99.90;;;;;;5017858;28;20210;-78
2024/01/11 01:22:13;;;;;;;13.53;5.77;;;-5.90;99.90;;;;;;5014743;28;20196;-81
2024/01/11 01:24:38;;;;;;;4.00;3.70;;;-5.90;99.90;;;;;;5013077;28;20748;-77
2024/01/11 01:27:04;;;;;;;7.53;3.77;;;-5.80;99.90;;;;;;5013720;28;20502;-82
2024/01/11 01:29:30;;;;;;;18.80;10.53;;;-5.80;99.90;;;;;;5016616;28;20261;-84
2024/01/11 01:31:55;;;;;;;8.00;7.20;;;-5.70;99.90;;;;;;5009981;28;20202;-79
2024/01/11 01:34:23;;;;;;;12.47;6.20;;;-5.70;99.90;;;;;;5013490;28;20217;-78
2024/01/11 01:36:49;;;;;;;4.22;3.85;;;-5.70;99.90;;;;;;5021520;28;20185;-80
2024/01/11 01:39:15;;;;;;;20.03;7.60;;;-5.70;99.90;;;;;;5005327;28;20285;-80
2024/01/11 01:41:41;;;;;;;25.55;5.97;;;-5.60;99.90;;;;;;5011914;28;20767;-85
2024/01/11 01:44:06;;;;;;;12.50;6.10;;;-5.60;99.90;;;;;;5012441;28;20272;-81
2024/01/11 01:46:34;;;;;;;11.83;6.50;;;-5.70;99.90;;;;;;5020551;28;20179;-81
2024/01/11 01:49:00;;;;;;;12.85;5.75;;;-5.80;99.90;;;;;;5020850;28;20217;-82
2024/01/11 01:51:29;;;;;;;7.10;3.30;;;-5.90;99.90;;;;;;5014689;28;20182;-81
2024/01/11 01:53:56;;;;;;;4.15;3.83;;;-5.90;99.90;;;;;;5008980;28;20186;-82
2024/01/11 01:56:22;;;;;;;4.20;2.75;;;-5.90;99.90;;;;;;5009405;28;20577;-79
2024/01/11 01:58:51;;;;;;;7.72;3.63;;;-5.90;99.90;;;;;;5027366;28;20190;-77
2024/01/11 02:01:18;;;;;;;8.98;8.07;;;-5.90;99.90;;;;;;5027449;28;20183;-81
2024/01/11 02:03:46;;;;;;;13.40;5.65;;;-6.00;99.90;;;;;;5012983;28;20178;-79
2024/01/11 02:06:13;;;;;;;6.78;4.82;;;-6.00;99.90;;;;;;5016024;28;20189;-80
2024/01/11 02:08:42;;;;;;;10.65;3.45;;;-5.90;99.90;;;;;;5009932;28;20227;-80
2024/01/11 02:11:07;;;;;;;4.45;3.78;;;-5.90;99.90;;;;;;5012683;28;20213;-79
2024/01/11 02:13:34;;;;;;;20.20;5.03;;;-5.90;99.90;;;;;;5020818;28;20214;-81
2024/01/11 02:15:59;;;;;;;22.83;6.43;;;-5.90;99.90;;;;;;5015743;28;20240;-80
2024/01/11 02:18:25;;;;;;;9.47;5.97;;;-5.80;99.90;;;;;;5014874;28;20210;-81
2024/01/11 02:20:51;;;;;;;9.60;6.50;;;-5.80;99.90;;;;;;5014694;28;20546;-81
2024/01/11 02:23:21;;;;;;;11.10;6.03;;;-5.80;99.90;;;;;;5027513;28;20742;-82
2024/01/11 02:25:46;;;;;;;9.43;3.45;;;-5.80;99.90;;;;;;5008623;28;20476;-81
2024/01/11 02:28:12;;;;;;;11.43;6.40;;;-5.80;99.90;;;;;;5014473;28;20206;-81
2024/01/11 02:30:38;;;;;;;13.20;7.67;;;-5.80;99.90;;;;;;5010010;28;20202;-83
2024/01/11 02:33:04;;;;;;;12.80;6.20;;;-5.80;99.90;;;;;;5009109;28;20225;-81
2024/01/11 02:35:31;;;;;;;8.95;4.47;;;-5.90;99.90;;;;;;5016772;28;20280;-81
2024/01/11 02:37:58;;;;;;;11.90;6.53;;;-5.90;99.90;;;;;;5019581;28;20189;-78
2024/01/11 02:40:25;;;;;;;8.63;5.75;;;-5.90;99.90;;;;;;5013564;28;20186;-81
2024/01/11 02:42:51;;;;;;;9.18;4.50;;;-5.90;99.90;;;;;;5012453;28;20270;-81
2024/01/11 02:45:16;;;;;;;6.47;4.90;;;-5.90;99.90;;;;;;5012950;28;20218;-80
2024/01/11 02:47:42;;;;;;;13.07;6.53;;;-5.90;99.90;;;;;;5010596;28;20257;-83
2024/01/11 02:50:08;;;;;;;28.33;6.43;;;-5.90;99.90;;;;;;5012005;28;20232;-82
2024/01/11 02:52:34;;;;;;;19.83;8.57;;;-6.00;99.90;;;;;;5014722;28;20178;-79
2024/01/11 02:54:59;;;;;;;12.98;6.38;;;-6.00;99.90;;;;;;5012406;28;20451;-84
2024/01/11 02:57:25;;;;;;;6.43;3.17;;;-6.00;99.90;;;;;;5014141;28;20193;-79
2024/01/11 02:59:51;;;;;;;16.13;4.60;;;-6.00;99.90;;;;;;5013815;28;20223;-81
2024/01/11 03:02:17;;;;;;;4.22;3.63;;;-6.00;99.90;;;;;;5014966;28;20202;-82
2024/01/11 03:04:43;;;;;;;10.47;5.23;;;-6.00;99.90;;;;;;5028456;28;20199;-84
2024/01/11 03:07:08;;;;;;;9.00;5.93;;;-6.00;99.90;;;;;;5029045;28;20221;-83
2024/01/11 03:09:34;;;;;;;9.63;5.27;;;-6.10;99.90;;;;;;5011235;28;20209;-82
2024/01/11 03:12:00;;;;;;;18.63;4.70;;;-6.10;99.90;;;;;;5011498;28;20521;-81
2024/01/11 03:14:25;;;;;;;8.30;3.87;;;-6.20;99.90;;;;;;5016695;28;20433;-84
2024/01/11 03:16:51;;;;;;;14.30;7.17;;;-6.20;99.90;;;;;;5010384;28;20657;-85
2024/01/11 03:19:16;;;;;;;15.00;8.20;;;-6.10;99.90;;;;;;5011470;28;20224;-83
2024/01/11 03:21:46;;;;;;;8.57;5.27;;;-6.20;99.90;;;;;;5014131;28;20194;-84
2024/01/11 03:24:12;;;;;;;25.08;8.85;;;-6.20;99.90;;;;;;5013015;28;20281;-84
2024/01/11 03:26:38;;;;;;;9.00;5.13;;;-6.20;99.90;;;;;;5011100;28;20739;-81
2024/01/11 03:29:03;;;;;;;7.17;6.37;;;-6.20;99.90;;;;;;5013687;28;20206;-83
2024/01/11 03:31:29;;;;;;;3.83;3.20;;;-6.20;99.90;;;;;;5013398;28;21047;-84
2024/01/11 03:33:54;;;;;;;10.07;6.27;;;-6.20;99.90;;;;;;5017270;28;20682;-84
2024/01/11 03:36:23;;;;;;;8.73;6.93;;;-6.20;99.90;;;;;;5014998;28;20177;-83
2024/01/11 03:38:49;;;;;;;8.05;5.18;;;-6.20;99.90;;;;;;5017945;28;20214;-82
2024/01/11 03:41:14;;;;;;;7.67;7.03;;;-6.20;99.90;;;;;;5015004;28;20186;-79
2024/01/11 03:43:40;;;;;;;28.83;7.83;;;-6.20;99.90;;;;;;5031286;28;20198;-83
2024/01/11 03:46:05;;;;;;;11.40;6.90;;;-6.30;99.90;;;;;;5018608;28;20668;-82
2024/01/11 03:48:31;;;;;;;3.20;2.97;;;-6.20;99.90;;;;;;5016164;28;20217;-82
2024/01/11 03:50:57;;;;;;;26.80;5.95;;;-6.20;99.90;;;;;;5019682;28;20251;-80
2024/01/11 03:53:23;;;;;;;11.30;8.60;;;-6.20;99.90;;;;;;5019575;28;20186;-82
2024/01/11 03:55:48;;;;;;;4.23;3.90;;;-6.40;99.90;;;;;;5016461;28;20185;-84
2024/01/11 03:58:15;;;;;;;9.65;6.80;;;-6.20;99.90;;;;;;5019022;28;20221;-83
2024/01/11 04:00:40;;;;;;;6.30;4.50;;;-6.10;99.90;;;;;;5015134;28;20208;-79
2024/01/11 04:03:09;;;;;;;13.03;5.60;;;-6.10;99.90;;;;;;5015820;28;20766;-84
2024/01/11 04:05:34;;;;;;;4.97;3.00;;;-6.20;99.90;;;;;;5012509;28;20536;-83
2024/01/11 04:08:02;;;;;;;4.77;4.27;;;-6.20;99.90;;;;;;5014706;28;20190;-82
2024/01/11 04:10:28;;;;;;;8.38;4.22;;;-6.20;99.90;;;;;;5009808;28;20292;-82
2024/01/11 04:12:53;;;;;;;16.57;5.03;;;-6.20;99.90;;;;;;5014912;28;20182;-80
2024/01/11 04:15:20;;;;;;;5.40;3.43;;;-6.20;99.90;;;;;;5029362;28;20208;-80
2024/01/11 04:17:45;;;;;;;12.02;4.47;;;-6.20;99.90;;;;;;5025424;28;20182;-86
2024/01/11 04:20:11;;;;;;;11.13;5.50;;;-6.20;99.90;;;;;;5022582;28;20424;-83
2024/01/11 04:22:36;;;;;;;18.77;5.60;;;-6.20;99.90;;;;;;5016985;28;20178;-83
2024/01/11 04:25:02;;;;;;;22.50;6.43;;;-6.20;99.90;;;;;;5018081;28;20221;-82
2024/01/11 04:27:28;;;;;;;17.57;5.03;;;-6.20;99.90;;;;;;5018781;28;20190;-80
2024/01/11 04:29:53;;;;;;;5.93;4.50;;;-6.20;99.90;;;;;;5012730;28;20728;-82
2024/01/11 04:32:19;;;;;;;10.33;5.30;;;-6.20;99.90;;;;;;5014973;28;20186;-83
2024/01/11 04:34:44;;;;;;;6.87;5.70;;;-6.30;99.90;;;;;;5014467;28;20178;-80
2024/01/11 04:37:10;;;;;;;21.43;5.37;;;-6.20;99.90;;;;;;5017848;28;20677;-82
2024/01/11 04:39:35;;;;;;;7.37;3.60;;;-6.30;99.90;;;;;;5016705;28;20213;-80
2024/01/11 04:42:02;;;;;;;7.47;4.73;;;-6.40;99.90;;;;;;5022533;28;20201;-81
2024/01/11 04:44:27;;;;;;;21.50;5.93;;;-6.30;99.90;;;;;;5014642;28;20192;-80
2024/01/11 04:46:53;;;;;;;5.13;4.67;;;-6.30;99.90;;;;;;5012390;28;20189;-82
2024/01/11 04:49:18;;;;;;;13.83;6.00;;;-6.30;99.90;;;;;;5013985;28;20802;-81
2024/01/11 04:51:43;;;;;;;12.40;6.10;;;-6.40;99.90;;;;;;5015502;28;20177;-85
2024/01/11 04:54:09;;;;;;;7.30;4.17;;;-6.40;99.90;;;;;;5010078;28;21139;-84
2024/01/11 04:56:34;;;;;;;9.57;5.87;;;-6.40;99.90;;;;;;5016812;28;20216;-83
2024/01/11 04:59:00;;;;;;;12.20;7.20;;;-6.40;99.90;;;;;;5015765;28;20791;-84
2024/01/11 05:01:25;;;;;;;17.50;5.60;;;-6.40;99.90;;;;;;5013545;28;20195;-82
2024/01/11 05:03:51;;;;;;;5.73;2.40;;;-6.50;99.90;;;;;;5021634;28;20190;-80
2024/01/11 05:06:18;;;;;;;5.20;4.73;;;-6.50;99.90;;;;;;5015393;28;20182;-82
2024/01/11 05:08:47;;;;;;;8.00;7.03;;;-6.50;99.90;;;;;;5012942;28;20209;-83
2024/01/11 05:11:21;;;;;;;8.77;6.22;;;-6.50;99.90;;;;;;5015264;28;20245;-84
2024/01/11 05:13:47;;;;;;;3.65;3.10;;;-6.60;99.90;;;;;;5014407;28;20206;-82
2024/01/11 05:16:18;;;;;;;12.88;4.03;;;-6.60;99.90;;;;;;5017213;28;20708;-82
2024/01/11 05:18:43;;;;;;;36.67;4.57;;;-6.60;99.90;;;;;;5014151;28;20236;-82
2024/01/11 05:21:09;;;;;;;9.83;6.33;;;-6.50;99.90;;;;;;5014751;28;20201;-83
2024/01/11 05:23:35;;;;;;;10.80;5.80;;;-6.50;99.90;;;;;;5018097;28;20213;-79
2024/01/11 05:26:00;;;;;;;25.17;5.67;;;-6.60;99.90;;;;;;5039403;28;20433;-80
2024/01/11 05:28:26;;;;;;;10.50;4.27;;;-6.60;99.90;;;;;;5027224;28;20451;-82
2024/01/11 05:30:51;;;;;;;9.03;5.87;;;-6.70;99.90;;;;;;5035936;28;20224;-84
2024/01/11 05:33:17;;;;;;;14.40;6.27;;;-6.70;99.90;;;;;;5026688;28;20551;-83
2024/01/11 05:35:42;;;;;;;27.23;5.30;;;-6.60;99.90;;;;;;5019717;28;20244;-78
2024/01/11 05:38:08;;;;;;;9.27;3.10;;;-6.60;99.90;;;;;;5023532;28;20220;-82
2024/01/11 05:40:33;;;;;;;5.30;4.53;;;-6.50;99.90;;;;;;5014677;28;20198;-80
2024/01/11 05:42:59;;;;;;;9.07;2.90;;;-6.50;99.90;;;;;;5012692;28;20185;-84
2024/01/11 05:45:24;;;;;;;8.17;4.07;;;-6.50;99.90;;;;;;5016235;28;20223;-82
2024/01/11 05:47:50;;;;;;;8.33;3.80;;;-6.50;99.90;;;;;;5015558;28;20206;-84
2024/01/11 05:50:15;;;;;;;6.40;4.50;;;-6.50;99.90;;;;;;5013277;28;20214;-85
2024/01/11 05:52:42;;;;;;;6.90;6.07;;;-6.50;99.90;;;;;;5028153;28;20221;-82
2024/01/11 05:55:07;;;;;;;5.00;4.38;;;-6.50;99.90;;;;;;5017290;28;20241;-83
2024/01/11 05:57:33;;;;;;;18.97;7.33;;;-6.50;99.90;;;;;;5013617;28;20950;-82
2024/01/11 05:59:58;;;;;;;9.37;4.97;;;-6.60;99.90;;;;;;5010635;28;20276;-82
2024/01/11 06:02:24;;;;;;;5.33;4.50;;;-6.60;99.90;;;;;;5010831;28;20218;-81
2024/01/11 06:04:49;;;;;;;10.50;4.57;;;-6.60;99.90;;;;;;5024773;28;20186;-83
2024/01/11 06:07:15;;;;;;;3.03;2.63;;;-6.60;99.90;;;;;;5012145;28;20213;-82
2024/01/11 06:09:41;;;;;;;9.13;6.63;;;-6.70;99.90;;;;;;5018326;28;20280;-85
2024/01/11 06:12:07;;;;;;;27.00;8.53;;;-6.80;99.90;;;;;;5009314;28;20516;-81
2024/01/11 06:14:32;;;;;;;1.90;1.60;;;-6.80;99.90;;;;;;5011434;28;20181;-81
2024/01/11 06:16:58;;;;;;;5.97;4.97;;;-6.80;99.90;;;;;;5011689;28;20528;-84
2024/01/11 06:19:23;;;;;;;9.87;6.30;;;-6.90;99.90;;;;;;5023708;28;21391;-83
2024/01/11 06:21:49;;;;;;;5.33;3.30;;;-6.80;99.90;;;;;;5012231;28;21170;-83
2024/01/11 06:24:14;;;;;;;15.27;6.03;;;-6.80;99.90;;;;;;5000089;28;20193;-81
2024/01/11 06:26:40;;;;;;;4.97;3.10;;;-6.80;99.90;;;;;;5007791;28;20195;-83
2024/01/11 06:29:05;;;;;;;11.23;4.93;;;-6.90;99.90;;;;;;5014641;28;20209;-82
2024/01/11 06:31:31;;;;;;;11.70;3.43;;;-6.80;99.90;;;;;;5015015;28;20206;-82
2024/01/11 06:33:57;;;;;;;3.30;3.10;;;-6.80;99.90;;;;;;5024749;28;20271;-84
2024/01/11 06:36:22;;;;;;;10.57;4.70;;;-6.80;99.90;;;;;;5025499;28;20441;-83
2024/01/11 06:38:48;;;;;;;18.87;4.40;;;-6.80;99.90;;;;;;5014046;28;20791;-80
2024/01/11 06:41:14;;;;;;;7.43;3.30;;;-6.70;99.90;;;;;;5014541;28;20188;-84
2024/01/11 06:43:39;;;;;;;13.73;6.40;;;-6.70;99.90;;;;;;5012006;28;20203;-85
2024/01/11 06:46:05;;;;;;;22.57;8.77;;;-6.70;99.90;;;;;;5016483;28;20276;-83
2024/01/11 06:48:31;;;;;;;7.47;4.78;;;-6.70;99.90;;;;;;5015727;28;20209;-80
2024/01/11 06:50:57;;;;;;;24.95;8.07;;;-6.80;99.90;;;;;;5013621;28;20592;-79
2024/01/11 06:53:22;;;;;;;5.73;4.90;;;-6.80;99.90;;;;;;5013579;28;20184;-82
2024/01/11 06:55:48;;;;;;;8.70;4.37;;;-6.90;99.90;;;;;;5018189;28;20185;-80
2024/01/11 06:58:16;;;;;;;5.70;3.40;;;-6.90;99.90;;;;;;5011750;28;20206;-81
2024/01/11 07:00:43;;;;;;;35.03;11.57;;;-6.90;99.90;;;;;;5008101;28;20425;-84
2024/01/11 07:03:10;;;;;;;17.13;7.78;;;-6.80;99.90;;;;;;5007384;28;21746;-80
2024/01/11 07:05:36;;;;;;;14.32;7.57;;;-6.70;99.90;;;;;;5037407;28;20404;-79
2024/01/11 07:08:01;;;;;;;4.23;3.93;;;-6.80;99.90;;;;;;5021120;28;20196;-81
2024/01/11 07:10:27;;;;;;;6.30;3.97;;;-6.80;99.90;;;;;;5017124;28;20213;-83
2024/01/11 07:12:52;;;;;;;10.10;7.07;;;-6.80;99.90;;;;;;5011144;28;20182;-80
2024/01/11 07:15:18;;;;;;;13.17;5.30;;;-6.80;99.90;;;;;;5016237;28;20212;-82
2024/01/11 07:17:43;;;;;;;8.07;4.93;;;-6.80;99.90;;;;;;5011261;28;20185;-84
2024/01/11 07:20:10;;;;;;;5.80;3.80;;;-6.80;99.90;;;;;;5015880;28;20222;-83
2024/01/11 07:22:35;;;;;;;5.97;5.03;;;-6.70;99.90;;;;;;5013626;28;20206;-82
2024/01/11 07:25:01;;;;;;;23.13;8.40;;;-6.60;99.90;;;;;;5009764;28;20198;-80
2024/01/11 07:27:26;;;;;;;26.23;6.37;;;-6.70;99.90;;;;;;5016159;28;20198;-82
2024/01/11 07:29:52;;;;;;;13.10;9.23;;;-6.80;99.90;;;;;;5011166;28;20251;-79
2024/01/11 07:32:17;;;;;;;17.03;6.60;;;-6.80;99.90;;;;;;5010071;28;20230;-81
2024/01/11 07:34:43;;;;;;;19.53;6.60;;;-6.80;99.90;;;;;;5015028;28;20613;-82
2024/01/11 07:37:09;;;;;;;6.87;4.80;;;-6.80;99.90;;;;;;5008531;28;20208;-84
2024/01/11 07:39:36;;;;;;;16.10;8.70;;;-6.70;99.90;;;;;;5011687;28;20465;-83
2024/01/11 07:42:02;;;;;;;4.20;3.85;;;-6.60;99.90;;;;;;5021501;28;20186;-78
2024/01/11 07:44:28;;;;;;;6.75;5.50;;;-6.50;99.90;;;;;;5020924;28;20194;-81
2024/01/11 07:46:53;;;;;;;26.10;5.57;;;-6.40;99.90;;;;;;5019759;28;20212;-83
2024/01/11 07:49:20;;;;;;;4.33;3.83;;;-6.30;99.90;;;;;;5016158;28;20229;-85
2024/01/11 07:51:45;;;;;;;9.48;5.75;;;-6.30;99.90;;;;;;5015501;28;20186;-83
2024/01/11 07:54:12;;;;;;;14.60;7.30;;;-6.20;99.90;;;;;;5012592;28;20265;-83
2024/01/11 07:56:37;;;;;;;8.38;5.15;;;-6.10;99.90;;;;;;5013533;28;20198;-81
2024/01/11 07:59:03;;;;;;;6.37;5.07;;;-5.90;99.90;;;;;;5010086;28;20250;-81
2024/01/11 08:01:28;;;;;;;5.83;5.30;;;-5.80;99.90;;;;;;5017790;28;20194;-81
2024/01/11 08:03:54;;;;;;;3.20;2.90;;;-5.60;99.90;;;;;;5009571;28;20212;-77
2024/01/11 08:06:19;;;;;;;7.53;4.77;;;-5.30;99.90;;;;;;5016122;28;20185;-84
2024/01/11 08:08:51;;;;;;;19.53;7.50;;;-5.00;99.90;;;;;;5011366;28;20556;-80
2024/01/11 08:11:16;;;;;;;17.00;7.80;;;-4.10;99.90;;;;;;5009883;28;20288;-79
2024/01/11 08:13:42;;;;;;;25.30;7.70;;;-3.20;99.90;;;;;;5007237;28;20196;-80
2024/01/11 08:16:09;;;;;;;17.20;8.03;;;-2.50;99.90;;;;;;5012534;28;20189;-83
2024/01/11 08:18:35;;;;;;;17.90;7.63;;;-1.60;99.90;;;;;;5010762;28;20214;-82
2024/01/11 08:21:00;;;;;;;11.13;6.60;;;-0.80;99.90;;;;;;5010390;28;20189;-83
2024/01/11 08:23:26;;;;;;;11.00;8.53;;;-0.10;99.90;;;;;;5009925;28;20261;-82
2024/01/11 08:25:52;;;;;;;41.97;11.30;;;0.40;99.90;;;;;;5006378;28;20194;-83
2024/01/11 08:28:18;;;;;;;25.08;9.57;;;0.80;99.90;;;;;;5016453;28;20476;-83
2024/01/11 08:30:43;;;;;;;26.17;9.60;;;1.20;99.90;;;;;;5005210;28;20297;-82
2024/01/11 08:33:09;;;;;;;16.90;8.30;;;1.40;99.90;;;;;;5010143;28;20213;-84
2024/01/11 08:35:35;;;;;;;21.73;10.83;;;1.70;99.90;;;;;;5008256;28;21407;-84
2024/01/11 08:38:01;;;;;;;23.80;11.73;;;2.20;99.90;;;;;;5009987;28;20871;-83
2024/01/11 08:40:26;;;;;;;28.50;13.30;;;2.70;99.90;;;;;;5006954;28;20870;-81
2024/01/11 08:42:52;;;;;;;19.67;9.87;;;2.70;99.90;;;;;;5012135;28;20182;-83
2024/01/11 08:45:17;;;;;;;13.50;7.63;;;1.70;99.90;;;;;;5034698;28;20174;-79
2024/01/11 08:47:46;;;;;;;20.93;9.03;;;1.40;99.90;;;;;;5025327;28;20226;-84
2024/01/11 08:50:13;;;;;;;20.27;10.25;;;1.90;99.90;;;;;;5030302;28;20226;-86
2024/01/11 08:52:39;;;;;;;17.88;8.90;;;2.40;99.90;;;;;;5023228;28;20626;-85
2024/01/11 08:55:05;;;;;;;18.13;7.67;;;2.50;99.90;;;;;;5012896;28;20292;-83
2024/01/11 08:57:32;;;;;;;27.17;11.25;;;3.20;99.90;;;;;;5013310;28;20251;-81
2024/01/11 08:59:57;;;;;;;24.42;8.60;;;4.10;99.90;;;;;;5011345;28;20214;-82
2024/01/11 09:02:23;;;;;;;23.23;11.90;;;4.20;99.90;;;;;;5014154;28;20181;-80
2024/01/11 09:04:49;;;;;;;38.63;14.33;;;4.60;99.90;;;;;;5013247;28;20190;-86
2024/01/11 09:07:15;;;;;;;25.70;10.17;;;5.00;99.90;;;;;;5012823;28;20189;-82
2024/01/11 09:09:41;;;;;;;28.63;12.20;;;5.10;99.90;;;;;;5014935;28;20490;-82
2024/01/11 09:12:07;;;;;;;24.33;10.80;;;5.00;99.90;;;;;;5012991;28;20718;-82
2024/01/11 09:14:32;;;;;;;22.40;12.20;;;3.80;99.90;;;;;;5007673;28;20216;-81
2024/01/11 09:16:58;;;;;;;26.23;10.27;;;3.30;99.90;;;;;;5001164;28;20882;-83
2024/01/11 09:19:24;;;;;;;17.20;9.10;;;3.60;99.90;;;;;;5020118;28;20272;-82
2024/01/11 09:21:49;;;;;;;15.87;9.77;;;3.60;99.90;;;;;;5014800;28;20308;-80
2024/01/11 09:24:15;;;;;;;26.70;11.27;;;2.90;99.90;;;;;;5001660;28;20186;-83
2024/01/11 09:26:41;;;;;;;31.30;10.10;;;2.30;99.90;;;;;;5011770;28;20260;-84
2024/01/11 09:29:06;;;;;;;22.70;9.80;;;2.90;99.90;;;;;;5013273;28;20538;-81
2024/01/11 09:31:32;;;;;;;14.83;7.73;;;3.60;99.90;;;;;;5009642;28;20258;-84
2024/01/11 09:33:57;;;;;;;20.40;9.37;;;3.80;99.90;;;;;;5012970;28;20198;-82
2024/01/11 09:36:23;;;;;;;27.87;9.40;;;3.50;99.90;;;;;;5010154;28;20304;-81
2024/01/11 09:38:48;;;;;;;16.57;8.50;;;3.80;99.90;;;;;;5009796;28;20627;-81
2024/01/11 09:41:14;;;;;;;19.07;9.93;;;3.90;99.90;;;;;;5009505;28;20298;-82
2024/01/11 09:43:44;;;;;;;17.90;9.57;;;3.80;99.90;;;;;;5012045;28;20185;-79
2024/01/11 09:46:11;;;;;;;22.00;10.15;;;3.60;99.90;;;;;;5006923;28;20281;-82
2024/01/11 09:48:40;;;;;;;22.92;8.98;;;2.90;99.90;;;;;;5000396;28;20210;-82
2024/01/11 09:51:13;;;;;;;11.00;5.65;;;2.00;99.90;;;;;;5016697;28;20218;-80
2024/01/11 09:53:40;;;;;;;12.05;9.15;;;1.00;99.90;;;;;;5003428;28;20200;-83
2024/01/11 09:56:09;;;;;;;25.10;11.40;;;0.60;99.90;;;;;;5014633;28;20190;-80
2024/01/11 09:58:38;;;;;;;13.90;6.80;;;0.00;99.90;;;;;;5013649;28;20225;-83
2024/01/11 10:01:09;;;;;;;20.88;12.20;;;-0.10;99.90;;;;;;5006186;28;20186;-85
2024/01/11 10:03:34;;;;;;;15.77;7.47;;;-0.20;99.90;;;;;;5003403;28;20177;-84
2024/01/11 10:06:02;;;;;;;16.93;9.00;;;-0.40;99.90;;;;;;5005794;28;20190;-85
2024/01/11 10:08:29;;;;;;;33.70;10.10;;;-0.50;99.90;;;;;;5001908;28;20704;-80
2024/01/11 10:10:55;;;;;;;13.60;7.43;;;-0.50;99.90;;;;;;5017009;28;20209;-82
2024/01/11 10:13:32;;;;;;;18.07;10.10;;;-0.40;99.90;;;;;;5005042;28;20190;-80
2024/01/11 10:16:09;;;;;;;14.93;7.75;;;-0.50;99.90;;;;;;5004606;28;20170;-81
2024/01/11 10:18:36;;;;;;;16.98;8.00;;;-0.50;99.90;;;;;;5019679;28;20229;-83
2024/01/11 10:21:02;;;;;;;18.23;9.18;;;-0.60;99.90;;;;;;5005399;28;20263;-82
2024/01/11 10:23:28;;;;;;;21.50;9.50;;;-0.60;99.90;;;;;;5003485;28;20210;-83
2024/01/11 10:25:57;;;;;;;28.95;9.65;;;-0.80;99.90;;;;;;5003392;28;20186;-85
2024/01/11 10:28:25;;;;;;;16.50;8.18;;;-0.70;99.90;;;;;;5009487;28;20215;-81
2024/01/11 10:30:52;;;;;;;21.92;7.07;;;-0.70;99.90;;;;;;5002708;28;20221;-83
2024/01/11 10:33:22;;;;;;;17.70;9.93;;;-0.60;99.90;;;;;;5003313;28;20232;-86
2024/01/11 10:35:49;;;;;;;17.98;8.85;;;-0.40;99.90;;;;;;5012880;28;20193;-78
2024/01/11 10:38:16;;;;;;;8.23;5.10;;;0.00;99.90;;;;;;5008246;28;20186;-85
2024/01/11 10:40:42;;;;;;;14.07;9.20;;;-0.10;99.90;;;;;;5004530;28;20186;-87
2024/01/11 10:43:12;;;;;;;17.42;8.82;;;0.00;99.90;;;;;;5012357;28;20247;-82
2024/01/11 10:45:41;;;;;;;21.63;10.05;;;0.10;99.90;;;;;;5003187;28;20810;-80
2024/01/11 10:48:16;;;;;;;29.17;11.38;;;0.30;99.90;;;;;;5006932;28;20190;-82
2024/01/11 10:50:49;;;;;;;35.53;14.85;;;0.10;99.90;;;;;;5004780;28;20205;-84
2024/01/11 10:53:45;;;;;;;18.10;9.88;;;0.20;99.90;;;;;;5002799;28;20198;-84
2024/01/11 10:56:12;;;;;;;38.88;11.15;;;-0.10;99.90;;;;;;5006316;28;20340;-81
2024/01/11 10:58:43;;;;;;;27.90;11.43;;;-0.20;99.90;;;;;;5009709;28;20296;-84
2024/01/11 11:01:10;;;;;;;21.48;7.53;;;-0.30;99.90;;;;;;5008591;28;20294;-84
2024/01/11 11:03:37;;;;;;;26.73;9.25;;;-0.20;99.90;;;;;;5009664;28;20327;-82
2024/01/11 11:06:05;;;;;;;17.00;9.60;;;-0.10;99.90;;;;;;5021602;28;20183;-79
2024/01/11 11:08:31;;;;;;;25.55;9.80;;;0.00;99.90;;;;;;5017435;28;20215;-76
2024/01/11 11:10:58;;;;;;;22.07;11.27;;;0.30;99.90;;;;;;5010308;28;20221;-79
2024/01/11 11:13:24;;;;;;;19.00;9.25;;;0.60;99.90;;;;;;5004706;28;21995;-82
2024/01/11 11:15:50;;;;;;;7.57;6.10;;;0.70;99.90;;;;;;5009178;28;20186;-82
2024/01/11 11:18:16;;;;;;;20.83;11.60;;;0.70;99.90;;;;;;5014530;28;20185;-79
2024/01/11 11:20:42;;;;;;;24.00;9.50;;;0.90;99.90;;;;;;5020136;28;20440;-82
2024/01/11 11:23:10;;;;;;;21.60;10.10;;;0.80;99.90;;;;;;5009724;28;20182;-82
2024/01/11 11:25:36;;;;;;;23.58;9.45;;;0.80;99.90;;;;;;5016843;28;20191;-80
2024/01/11 11:28:05;;;;;;;19.20;9.30;;;0.60;99.90;;;;;;5016302;28;20193;-82
2024/01/11 11:30:38;;;;;;;23.73;11.65;;;0.50;99.90;;;;;;5023818;28;20464;-78
2024/01/11 11:33:23;;;;;;;22.73;9.90;;;0.70;99.90;;;;;;5027686;28;20715;-81
2024/01/11 11:35:54;;;;;;;14.88;8.32;;;0.80;99.90;;;;;;5018827;28;20204;-81
2024/01/11 11:38:30;;;;;;;26.83;12.27;;;0.90;99.90;;;;;;5018403;28;20206;-81
2024/01/11 11:41:00;;;;;;;30.08;9.45;;;0.60;99.90;;;;;;5024986;28;20177;-80
2024/01/11 11:43:27;;;;;;;43.40;9.70;;;0.40;99.90;;;;;;5025786;28;20738;-80
2024/01/11 11:45:53;;;;;;;14.10;8.30;;;0.40;99.90;;;;;;5021110;28;20209;-80
2024/01/11 11:48:32;;;;;;;28.05;11.07;;;0.20;99.90;;;;;;5015438;28;20259;-81
2024/01/11 11:51:10;;;;;;;11.32;7.28;;;0.30;99.90;;;;;;5010971;28;20229;-79
2024/01/11 11:53:41;;;;;;;22.85;7.95;;;0.20;99.90;;;;;;5013348;28;20947;-79
2024/01/11 11:56:09;;;;;;;31.33;10.23;;;0.50;99.90;;;;;;5024301;28;20243;-82
2024/01/11 11:58:35;;;;;;;57.05;12.52;;;0.70;99.90;;;;;;5007208;28;20206;-82
2024/01/11 12:01:02;;;;;;;31.47;11.43;;;0.70;99.90;;;;;;5010520;28;20219;-79
2024/01/11 12:03:33;;;;;;;13.07;7.68;;;0.70;99.90;;;;;;5013302;28;20498;-79
2024/01/11 12:06:00;;;;;;;21.40;9.95;;;0.80;99.90;;;;;;5008882;28;20223;-77
2024/01/11 12:08:26;;;;;;;23.25;9.50;;;0.90;99.90;;;;;;5007433;28;20726;-82
2024/01/11 12:10:52;;;;;;;17.90;9.20;;;0.90;99.90;;;;;;5008774;28;20209;-76
2024/01/11 12:13:20;;;;;;;14.02;8.05;;;1.00;99.90;;;;;;5024463;28;20215;-80
2024/01/11 12:15:46;;;;;;;23.80;10.45;;;1.00;99.90;;;;;;5011171;28;20652;-79
2024/01/11 12:18:12;;;;;;;25.53;12.73;;;1.20;99.90;;;;;;5009720;28;20221;-80
2024/01/11 12:20:37;;;;;;;37.30;11.43;;;1.50;99.90;;;;;;5013590;28;20527;-80
2024/01/11 12:23:04;;;;;;;21.67;10.40;;;1.70;99.90;;;;;;5015765;28;20197;-80
2024/01/11 12:25:31;;;;;;;38.88;11.43;;;2.00;99.90;;;;;;5014144;28;20190;-80
2024/01/11 12:27:57;;;;;;;25.27;10.73;;;1.90;99.90;;;;;;5013292;28;20183;-83
2024/01/11 12:30:23;;;;;;;26.38;11.95;;;1.90;99.90;;;;;;5009399;28;20229;-82
2024/01/11 12:32:49;;;;;;;26.95;9.20;;;1.90;99.90;;;;;;5007537;28;20241;-85
2024/01/11 12:35:17;;;;;;;27.67;11.98;;;1.60;99.90;;;;;;5005810;28;20196;-81
2024/01/11 12:37:53;;;;;;;23.65;11.07;;;1.40;99.90;;;;;;5007414;28;20216;-78